Time;durP1;ratioP1;P1;durP2;ratioP2;P2;SDS_P1;SDS_P2;PMS_P1;PMS_P2;Temp;Humidity;BMP_temperature;BMP_pressure;BME280_temperature;BME280_humidity;BME280_pressure;Samples;Min_cycle;Max_cycle;Signal;HPM_P1;HPM_P2
2022/08/29 00:00:59;;;;;;;5.22;2.60;;;;;;;13.33;96.14;101067.84;6228439;28;20046;-90
2022/08/29 00:04:01;;;;;;;10.73;2.75;;;;;;;13.31;96.18;101070.56;6232837;28;20084;-90
2022/08/29 00:07:04;;;;;;;6.25;2.60;;;;;;;13.24;96.72;101063.38;6216241;28;20622;-90
2022/08/29 00:10:06;;;;;;;8.57;2.72;;;;;;;13.17;96.38;101070.84;6225760;28;20175;-90
2022/08/29 00:13:10;;;;;;;7.78;2.95;;;;;;;13.20;97.29;101061.97;6218617;28;20455;-90
2022/08/29 00:16:12;;;;;;;5.72;2.75;;;;;;;13.13;96.21;101062.47;6221348;28;20052;-90
2022/08/29 00:19:13;;;;;;;7.95;2.53;;;;;;;13.07;97.17;101064.75;6213948;28;20112;-90
2022/08/29 00:22:15;;;;;;;4.20;2.58;;;;;;;13.03;97.42;101061.56;6216390;28;20139;-90
2022/08/29 00:25:17;;;;;;;6.47;2.60;;;;;;;13.07;99.18;101065.56;6223060;28;20057;-90
2022/08/29 00:28:20;;;;;;;6.65;2.90;;;;;;;13.02;98.76;101057.31;6226167;28;20105;-90
2022/08/29 00:31:21;;;;;;;4.25;2.45;;;;;;;12.96;98.46;101057.00;6180285;28;20144;-90
2022/08/29 00:34:23;;;;;;;10.80;2.92;;;;;;;12.88;99.65;101057.59;6194842;28;20038;-90
2022/08/29 00:37:25;;;;;;;5.85;2.45;;;;;;;12.81;99.42;101061.63;6200548;28;20078;-90
2022/08/29 00:40:39;;;;;;;6.32;2.80;;;;;;;12.78;100.00;101065.31;6212772;28;20127;-91
2022/08/29 00:43:41;;;;;;;5.55;2.65;;;;;;;12.73;100.00;101054.47;6220978;28;20050;-90
2022/08/29 00:46:54;;;;;;;6.10;2.78;;;;;;;12.62;100.00;101057.91;6219681;28;20041;-90
2022/08/29 00:49:56;;;;;;;7.10;2.63;;;;;;;12.54;100.00;101068.06;6232649;28;20048;-90
2022/08/29 00:53:03;;;;;;;7.60;3.03;;;;;;;12.47;100.00;101062.53;6200568;28;20046;-91
2022/08/29 00:56:07;;;;;;;6.97;2.45;;;;;;;12.47;100.00;101056.50;6214345;28;20041;-91
2022/08/29 00:59:30;;;;;;;4.97;2.60;;;;;;;12.57;100.00;101064.41;6207061;28;20037;-90
2022/08/29 01:02:32;;;;;;;4.97;2.50;;;;;;;12.64;100.00;101058.59;6221993;28;20470;-90
2022/08/29 01:05:41;;;;;;;6.22;2.42;;;;;;;12.70;100.00;101063.31;6216082;28;20105;-90
2022/08/29 01:08:44;;;;;;;8.93;2.60;;;;;;;12.75;100.00;101049.97;6221277;28;20046;-90
2022/08/29 01:15:11;;;;;;;6.63;2.70;;;;;;;12.83;100.00;101070.97;6218734;28;20053;-90
2022/08/29 01:18:14;;;;;;;4.85;2.50;;;;;;;12.83;100.00;101070.13;6220539;28;20244;-90
2022/08/29 01:21:35;;;;;;;5.93;2.38;;;;;;;12.82;100.00;101060.69;6218566;28;20045;-90
2022/08/29 01:24:44;;;;;;;7.93;3.17;;;;;;;12.78;100.00;101064.47;6224010;28;20075;-90
2022/08/29 01:27:59;;;;;;;7.05;2.60;;;;;;;12.75;100.00;101062.13;6212825;28;20134;-90
2022/08/29 01:31:14;;;;;;;8.82;3.10;;;;;;;12.71;100.00;101066.72;6209430;28;20041;-90
2022/08/29 01:34:36;;;;;;;6.15;2.65;;;;;;;12.64;100.00;101068.97;6206933;28;20042;-90
2022/08/29 01:37:42;;;;;;;5.80;3.00;;;;;;;12.60;100.00;101069.38;6192118;28;20046;-90
2022/08/29 01:40:45;;;;;;;4.30;2.50;;;;;;;12.58;100.00;101060.88;6212952;28;20045;-90
2022/08/29 01:43:50;;;;;;;6.40;2.38;;;;;;;12.56;100.00;101055.78;6217054;28;20483;-90
2022/08/29 01:46:56;;;;;;;6.30;2.33;;;;;;;12.54;100.00;101054.25;6217867;28;20053;-90
2022/08/29 01:50:15;;;;;;;8.23;2.60;;;;;;;12.54;100.00;101057.66;6215814;28;20045;-90
2022/08/29 01:53:17;;;;;;;8.10;2.45;;;;;;;12.63;100.00;101056.13;6205971;28;20034;-90
2022/08/29 01:56:24;;;;;;;9.40;2.90;;;;;;;12.63;100.00;101063.94;6226549;28;20074;-90
2022/08/29 01:59:27;;;;;;;5.80;2.72;;;;;;;12.62;100.00;101064.84;6224912;28;20889;-91
2022/08/29 02:02:30;;;;;;;6.80;2.72;;;;;;;12.64;100.00;101060.38;6204758;28;20060;-91
2022/08/29 02:05:32;;;;;;;3.70;2.30;;;;;;;12.63;100.00;101062.16;6201107;28;20042;-91
2022/08/29 02:08:34;;;;;;;7.30;2.70;;;;;;;12.67;100.00;101065.31;6205020;28;20050;-90
2022/08/29 02:11:38;;;;;;;8.88;2.42;;;;;;;12.66;100.00;101067.09;6212400;28;20038;-90
2022/08/29 02:14:42;;;;;;;5.95;2.45;;;;;;;12.67;100.00;101066.16;6217065;28;20498;-90
2022/08/29 02:17:44;;;;;;;4.95;2.63;;;;;;;12.66;100.00;101061.09;6219032;28;20050;-90
2022/08/29 02:20:49;;;;;;;6.85;2.50;;;;;;;12.64;100.00;101071.59;6205203;28;20045;-90
2022/08/29 02:23:52;;;;;;;11.18;3.33;;;;;;;12.64;100.00;101068.16;6207526;28;20530;-90
2022/08/29 02:26:55;;;;;;;4.35;2.78;;;;;;;12.61;100.00;101082.22;6211320;28;20116;-91
2022/08/29 02:29:57;;;;;;;8.32;2.50;;;;;;;12.58;100.00;101066.88;6225963;28;20037;-91
2022/08/29 02:33:00;;;;;;;6.88;3.13;;;;;;;12.66;100.00;101069.69;6226825;28;20098;-90
2022/08/29 02:36:06;;;;;;;7.35;2.58;;;;;;;12.77;100.00;101076.66;6199850;28;20038;-90
2022/08/29 02:39:08;;;;;;;5.97;2.30;;;;;;;12.90;100.00;101077.31;6209464;28;20043;-90
2022/08/29 02:42:11;;;;;;;6.70;3.05;;;;;;;12.90;100.00;101076.50;6217575;28;20114;-90
2022/08/29 02:45:13;;;;;;;4.88;2.53;;;;;;;12.85;100.00;101076.88;6221201;28;20038;-90
2022/08/29 02:48:16;;;;;;;6.50;2.25;;;;;;;12.84;100.00;101079.56;6211626;28;20061;-90
2022/08/29 02:51:28;;;;;;;5.75;2.42;;;;;;;12.85;100.00;101073.44;6216153;28;20042;-91
2022/08/29 02:54:30;;;;;;;7.40;2.90;;;;;;;12.83;100.00;101075.34;6197099;28;20501;-90
2022/08/29 02:57:32;;;;;;;7.18;2.40;;;;;;;12.86;100.00;101070.72;6198331;28;20042;-90
2022/08/29 03:00:35;;;;;;;7.63;2.88;;;;;;;12.86;100.00;101070.72;6198020;28;20384;-90
2022/08/29 03:03:37;;;;;;;7.43;2.33;;;;;;;12.90;100.00;101066.09;6205006;28;20500;-90
2022/08/29 03:06:39;;;;;;;7.78;3.00;;;;;;;12.91;100.00;101062.53;6215214;28;20096;-90
2022/08/29 03:09:41;;;;;;;4.72;2.58;;;;;;;12.92;100.00;101059.84;6219751;28;20045;-90
2022/08/29 03:12:42;;;;;;;7.32;2.45;;;;;;;12.98;100.00;101062.88;6219034;28;20038;-90
2022/08/29 03:15:45;;;;;;;5.18;2.65;;;;;;;13.09;100.00;101058.47;6216702;28;20112;-90
2022/08/29 03:18:47;;;;;;;7.20;2.80;;;;;;;13.20;100.00;101054.19;6222474;28;20061;-91
2022/08/29 03:21:49;;;;;;;7.53;2.45;;;;;;;13.30;100.00;101057.72;6223335;28;20042;-91
2022/08/29 03:24:51;;;;;;;6.20;2.50;;;;;;;13.41;100.00;101059.41;6218054;28;20129;-90
2022/08/29 03:27:53;;;;;;;4.63;2.22;;;;;;;13.53;100.00;101054.03;6210277;28;20041;-90
2022/08/29 03:30:54;;;;;;;6.90;2.83;;;;;;;13.64;100.00;101060.09;6199995;28;20041;-90
2022/08/29 03:33:56;;;;;;;4.60;2.50;;;;;;;13.68;100.00;101058.91;6235581;28;20419;-90
2022/08/29 03:36:59;;;;;;;9.75;2.45;;;;;;;13.69;100.00;101063.16;6223548;28;20054;-91
2022/08/29 03:40:02;;;;;;;5.30;2.35;;;;;;;13.68;100.00;101061.50;6226033;28;20091;-91
2022/08/29 03:43:04;;;;;;;6.70;2.35;;;;;;;13.68;100.00;101058.91;6217464;28;20053;-91
2022/08/29 03:46:06;;;;;;;23.80;3.10;;;;;;;13.71;100.00;101056.03;6218408;28;20049;-91
2022/08/29 03:49:08;;;;;;;6.75;2.70;;;;;;;13.71;100.00;101056.03;6215567;28;20389;-90
2022/08/29 03:52:10;;;;;;;7.70;3.45;;;;;;;13.70;100.00;101059.59;6234541;28;20045;-90
2022/08/29 03:55:14;;;;;;;8.38;2.78;;;;;;;13.71;100.00;101062.09;6219327;28;20123;-90
2022/08/29 03:58:16;;;;;;;6.53;2.22;;;;;;;13.76;100.00;101069.50;6216963;28;20049;-90
2022/08/29 04:01:18;;;;;;;8.02;2.90;;;;;;;13.83;100.00;101073.22;6225001;28;20588;-90
2022/08/29 04:07:48;;;;;;;9.10;2.83;;;;;;;13.87;100.00;101066.81;6200481;28;20050;-90
2022/08/29 04:10:50;;;;;;;7.68;2.80;;;;;;;13.91;100.00;101055.22;6208881;28;20050;-90
2022/08/29 04:13:53;;;;;;;4.10;2.70;;;;;;;13.88;100.00;101070.25;6213815;28;20042;-90
2022/08/29 04:16:55;;;;;;;5.65;2.38;;;;;;;13.80;100.00;101068.28;6223600;28;20045;-90
2022/08/29 04:19:57;;;;;;;4.28;2.78;;;;;;;13.68;100.00;101071.91;6224065;28;20044;-91
2022/08/29 04:22:59;;;;;;;7.88;2.75;;;;;;;13.63;100.00;101069.69;6223178;28;20057;-90
2022/08/29 04:26:01;;;;;;;6.40;2.65;;;;;;;13.69;100.00;101069.19;6215821;28;20056;-90
2022/08/29 04:29:23;;;;;;;8.38;2.55;;;;;;;13.78;100.00;101078.81;6208166;28;20071;-90
2022/08/29 04:32:25;;;;;;;7.15;2.50;;;;;;;13.90;100.00;101082.16;6223321;28;20488;-90
2022/08/29 04:35:28;;;;;;;5.55;2.15;;;;;;;13.98;100.00;101076.31;6228803;28;20514;-90
2022/08/29 04:38:31;;;;;;;7.15;2.70;;;;;;;14.04;100.00;101080.22;6227706;28;20506;-90
2022/08/29 04:41:34;;;;;;;7.25;2.60;;;;;;;14.18;100.00;101080.66;6222434;28;20563;-90
2022/08/29 04:44:36;;;;;;;5.78;2.00;;;;;;;14.28;100.00;101080.69;6227197;28;20403;-90
2022/08/29 04:47:39;;;;;;;6.00;2.50;;;;;;;14.37;100.00;101079.91;6223178;28;20065;-90
2022/08/29 04:50:40;;;;;;;6.85;2.47;;;;;;;14.48;100.00;101088.56;6219817;28;20053;-90
2022/08/29 04:53:42;;;;;;;7.20;2.30;;;;;;;14.52;100.00;101082.16;6215009;28;20052;-90
2022/08/29 04:56:44;;;;;;;10.07;2.60;;;;;;;14.61;100.00;101091.81;6206066;28;20049;-90
2022/08/29 04:59:54;;;;;;;4.70;2.28;;;;;;;14.67;100.00;101088.66;6214172;28;20037;-90
2022/08/29 05:02:56;;;;;;;4.95;2.13;;;;;;;14.86;100.00;101088.69;6213997;28;20034;-91
2022/08/29 05:06:05;;;;;;;7.78;2.38;;;;;;;14.89;100.00;101086.78;6214298;28;20046;-90
2022/08/29 05:09:07;;;;;;;4.93;1.95;;;;;;;14.95;100.00;101084.44;6224212;28;20056;-90
2022/08/29 05:12:09;;;;;;;9.32;2.33;;;;;;;15.00;100.00;101092.69;6242447;28;20407;-90
2022/08/29 05:15:12;;;;;;;7.43;2.70;;;;;;;15.07;100.00;101091.19;6222884;28;20049;-91
2022/08/29 05:18:19;;;;;;;11.60;2.90;;;;;;;15.15;100.00;101094.88;6211724;28;20042;-91
2022/08/29 05:21:33;;;;;;;5.30;2.40;;;;;;;15.17;100.00;101091.19;6216198;28;20034;-90
2022/08/29 05:24:36;;;;;;;7.75;2.40;;;;;;;15.22;100.00;101088.97;6222680;28;20083;-90
2022/08/29 05:27:39;;;;;;;6.13;2.47;;;;;;;15.30;100.00;101088.28;6218750;28;20075;-91
2022/08/29 05:30:41;;;;;;;6.82;2.55;;;;;;;15.38;100.00;101087.59;6221102;28;20325;-91
2022/08/29 05:33:43;;;;;;;4.55;1.88;;;;;;;15.58;99.80;101086.63;6234042;28;20052;-91
2022/08/29 05:36:45;;;;;;;8.65;2.33;;;;;;;15.75;99.56;101092.97;6226978;28;20052;-90
2022/08/29 05:39:48;;;;;;;5.70;2.55;;;;;;;15.90;98.95;101096.75;6215357;28;20052;-91
2022/08/29 05:42:50;;;;;;;10.55;2.70;;;;;;;15.99;98.77;101107.31;6218847;28;20435;-90
2022/08/29 05:46:03;;;;;;;6.32;2.72;;;;;;;15.99;97.37;101107.31;6208457;28;20475;-92
2022/08/29 05:49:05;;;;;;;5.28;2.42;;;;;;;16.01;97.84;101111.44;6212554;28;20720;-90
2022/08/29 05:52:07;;;;;;;6.47;2.33;;;;;;;15.94;97.41;101107.72;6231596;28;20062;-90
2022/08/29 05:55:10;;;;;;;6.68;2.63;;;;;;;15.98;98.02;101108.28;6214286;28;20155;-91
2022/08/29 05:58:12;;;;;;;9.55;2.63;;;;;;;16.02;98.00;101109.63;6202001;28;20039;-90
2022/08/29 06:01:29;;;;;;;7.07;2.40;;;;;;;16.04;98.39;101111.13;6216544;28;20538;-90
2022/08/29 06:04:33;;;;;;;9.45;2.70;;;;;;;16.08;97.32;101104.66;6199068;28;20164;-90
2022/08/29 06:07:35;;;;;;;7.57;2.42;;;;;;;16.03;97.87;101108.69;6198913;28;20068;-90
2022/08/29 06:10:42;;;;;;;7.18;2.42;;;;;;;16.05;97.78;101117.19;6228402;28;20057;-90
2022/08/29 06:13:44;;;;;;;8.82;2.45;;;;;;;16.00;96.69;101120.25;6223275;28;20053;-89
2022/08/29 06:16:46;;;;;;;6.28;2.17;;;;;;;15.92;97.40;101118.34;6212738;28;20034;-90
2022/08/29 06:19:50;;;;;;;8.45;2.60;;;;;;;15.88;97.79;101123.97;6200851;28;20116;-91
2022/08/29 06:22:52;;;;;;;7.07;2.35;;;;;;;15.90;97.02;101127.28;6226500;28;20069;-91
2022/08/29 06:25:55;;;;;;;10.20;2.63;;;;;;;15.87;96.81;101130.16;6225982;28;20045;-90
2022/08/29 06:28:58;;;;;;;8.48;2.70;;;;;;;15.83;97.38;101127.00;6219502;28;20496;-90
2022/08/29 06:31:59;;;;;;;6.00;2.50;;;;;;;15.94;97.83;101126.00;6227703;28;20045;-92
2022/08/29 06:35:02;;;;;;;5.68;2.35;;;;;;;16.12;96.80;101120.88;6230515;28;20521;-90
2022/08/29 06:38:04;;;;;;;5.63;2.38;;;;;;;16.27;95.68;101116.84;6214899;28;20068;-90
2022/08/29 06:41:09;;;;;;;11.25;3.08;;;;;;;16.46;95.24;101128.16;6206285;28;20102;-90
2022/08/29 06:44:12;;;;;;;10.82;2.58;;;;;;;16.67;93.48;101128.75;6215387;28;20438;-92
2022/08/29 06:47:13;;;;;;;8.77;2.67;;;;;;;16.84;92.58;101129.78;6220582;28;20041;-91
2022/08/29 06:50:17;;;;;;;7.70;2.70;;;;;;;17.14;90.68;101133.00;6223968;28;20478;-91
2022/08/29 06:53:20;;;;;;;9.07;2.85;;;;;;;17.37;89.76;101133.41;6229770;28;20257;-91
2022/08/29 06:56:34;;;;;;;9.43;2.60;;;;;;;17.47;89.34;101142.00;6201704;28;20484;-92
2022/08/29 06:59:38;;;;;;;11.10;3.08;;;;;;;17.38;89.77;101146.31;6203793;28;20042;-91
2022/08/29 07:02:40;;;;;;;13.13;3.05;;;;;;;17.17;91.10;101135.34;6220763;28;20051;-93
2022/08/29 07:05:43;;;;;;;10.27;3.00;;;;;;;16.84;93.42;101144.63;6212469;28;20042;-91
2022/08/29 07:08:45;;;;;;;11.13;3.30;;;;;;;16.76;93.87;101145.34;6208494;28;20086;-91
2022/08/29 07:11:57;;;;;;;15.00;3.50;;;;;;;16.85;94.27;101157.59;6209616;28;20041;-92
2022/08/29 07:15:00;;;;;;;11.60;3.13;;;;;;;17.01;94.12;101154.31;6204386;28;20120;-91
2022/08/29 07:18:03;;;;;;;8.48;3.65;;;;;;;17.21;92.88;101145.34;6207875;28;20034;-92
2022/08/29 07:21:06;;;;;;;11.20;3.55;;;;;;;17.31;92.93;101142.66;6227673;28;20531;-91
2022/08/29 07:24:08;;;;;;;11.90;3.83;;;;;;;17.50;92.51;101146.09;6217003;28;20037;-93
2022/08/29 07:27:12;;;;;;;7.95;3.88;;;;;;;17.59;91.82;101142.59;6210922;28;20046;-93
2022/08/29 07:30:19;;;;;;;11.70;3.80;;;;;;;17.82;90.65;101149.00;6224426;28;20053;-92
2022/08/29 07:33:21;;;;;;;11.73;4.60;;;;;;;17.94;90.73;101146.94;6221254;28;20119;-93
2022/08/29 07:36:23;;;;;;;15.45;3.72;;;;;;;17.93;90.62;101147.09;6215954;28;20030;-95
2022/08/29 07:39:25;;;;;;;9.20;3.50;;;;;;;17.84;91.38;101136.56;6210573;28;20042;-91
2022/08/29 07:42:27;;;;;;;11.35;3.47;;;;;;;17.81;90.78;101147.38;6213009;28;20038;-92
2022/08/29 07:45:29;;;;;;;7.97;3.13;;;;;;;17.83;91.65;101147.19;6205473;28;20109;-93
2022/08/29 07:48:31;;;;;;;9.57;4.00;;;;;;;17.67;91.61;101140.03;6215902;28;20135;-91
2022/08/29 07:51:33;;;;;;;8.80;3.47;;;;;;;17.63;93.18;101149.97;6213365;28;20496;-92
2022/08/29 07:54:35;;;;;;;10.10;3.50;;;;;;;17.81;91.78;101142.13;6205161;28;20052;-91
2022/08/29 07:57:37;;;;;;;9.75;3.30;;;;;;;17.69;92.75;101148.56;6208330;28;20038;-92
2022/08/29 08:00:40;;;;;;;7.65;3.17;;;;;;;17.50;94.35;101146.09;6220994;28;20046;-91
2022/08/29 08:03:42;;;;;;;6.28;3.42;;;;;;;17.39;95.64;101157.59;6225086;28;20037;-91
2022/08/29 08:06:46;;;;;;;11.30;4.10;;;;;;;17.26;96.93;101157.16;6215398;28;20065;-91
2022/08/29 08:09:47;;;;;;;8.45;3.72;;;;;;;17.12;98.43;101153.28;6196502;28;20042;-91
2022/08/29 08:12:50;;;;;;;12.13;4.18;;;;;;;16.98;99.25;101160.66;6206364;28;20041;-92
2022/08/29 08:15:54;;;;;;;7.55;3.25;;;;;;;17.00;99.06;101165.75;6226166;28;20042;-91
2022/08/29 08:18:56;;;;;;;6.82;3.20;;;;;;;17.09;99.12;101164.03;6216518;28;20050;-91
2022/08/29 08:21:58;;;;;;;11.85;3.55;;;;;;;17.24;98.29;101167.78;6211715;28;20041;-91
2022/08/29 08:25:00;;;;;;;9.18;3.60;;;;;;;17.59;96.44;101158.28;6214770;28;20046;-90
2022/08/29 08:28:02;;;;;;;7.72;3.13;;;;;;;17.84;94.80;101165.38;6218578;28;20539;-93
2022/08/29 08:31:07;;;;;;;7.90;3.72;;;;;;;18.04;93.20;101158.16;6224983;28;20066;-91
2022/08/29 08:34:14;;;;;;;8.70;3.15;;;;;;;18.12;93.55;101165.22;6228548;28;20037;-91
2022/08/29 08:37:16;;;;;;;8.10;3.38;;;;;;;17.94;96.14;101173.16;6214329;28;20069;-91
2022/08/29 08:40:30;;;;;;;7.10;3.45;;;;;;;17.54;99.24;101169.22;6214546;28;20041;-91
2022/08/29 08:43:52;;;;;;;9.13;3.60;;;;;;;17.14;100.00;101180.94;6224372;28;20077;-93
2022/08/29 08:46:58;;;;;;;7.90;4.07;;;;;;;16.86;100.00;101177.53;6219892;28;20139;-93
2022/08/29 08:50:14;;;;;;;6.75;3.67;;;;;;;16.97;100.00;101186.97;6213756;28;20087;-92
2022/08/29 08:53:39;;;;;;;12.48;4.82;;;;;;;17.18;100.00;101187.50;6217127;28;20078;-93
2022/08/29 08:56:45;;;;;;;7.95;4.20;;;;;;;17.59;100.00;101181.84;6213972;28;20045;-91
2022/08/29 08:59:58;;;;;;;7.00;3.78;;;;;;;17.96;100.00;101180.84;6214984;28;20045;-92
2022/08/29 09:03:34;;;;;;;7.57;3.65;;;;;;;18.28;100.00;101177.59;6216407;28;20126;-92
2022/08/29 09:06:58;;;;;;;7.25;3.92;;;;;;;18.56;100.00;101183.47;6203727;28;20064;-92
2022/08/29 09:10:38;;;;;;;7.03;4.20;;;;;;;18.73;97.57;101182.56;6144163;28;20067;-92
2022/08/29 09:14:21;;;;;;;9.93;4.07;;;;;;;18.86;93.40;101186.59;6153240;28;20059;-92
2022/08/29 09:17:35;;;;;;;7.43;4.00;;;;;;;18.93;93.12;101190.19;6131518;29;20370;-92
2022/08/29 09:20:39;;;;;;;7.82;4.03;;;;;;;18.99;92.64;101189.56;6129044;29;20061;-93
2022/08/29 09:24:03;;;;;;;10.05;5.07;;;;;;;19.17;91.43;101197.31;6110047;29;20286;-91
2022/08/29 09:27:05;;;;;;;10.90;4.78;;;;;;;19.37;91.10;101190.78;6122393;29;20110;-92
2022/08/29 09:30:15;;;;;;;13.02;5.10;;;;;;;19.50;90.71;101192.94;6107719;29;20055;-93
2022/08/29 09:33:17;;;;;;;11.43;5.45;;;;;;;19.43;90.13;101194.56;6115491;29;20059;-92
2022/08/29 09:36:41;;;;;;;12.93;5.15;;;;;;;19.50;91.05;101195.56;6102200;29;20427;-92
2022/08/29 09:39:57;;;;;;;11.10;4.78;;;;;;;19.76;88.87;101186.72;6118786;29;20055;-92
2022/08/29 09:43:02;;;;;;;10.68;5.55;;;;;;;19.96;87.68;101193.25;6121439;29;20453;-92
2022/08/29 09:46:15;;;;;;;10.30;4.88;;;;;;;20.07;86.44;101188.66;6124348;29;20526;-93
2022/08/29 09:49:17;;;;;;;11.27;6.15;;;;;;;20.18;85.97;101191.75;6146404;28;20607;-92
2022/08/29 09:52:24;;;;;;;12.48;5.97;;;;;;;20.15;86.82;101191.28;6168614;28;20140;-94
2022/08/29 09:55:39;;;;;;;13.23;5.97;;;;;;;20.23;87.02;101188.63;6205890;28;20441;-92
2022/08/29 09:58:41;;;;;;;10.77;5.57;;;;;;;20.45;86.77;101189.72;6205638;28;20046;-91
2022/08/29 10:01:43;;;;;;;13.65;5.55;;;;;;;20.56;85.40;101188.53;6203407;28;20065;-93
2022/08/29 10:04:51;;;;;;;11.45;5.65;;;;;;;20.40;85.80;101194.66;6227022;28;20050;-93
2022/08/29 10:07:53;;;;;;;9.35;5.22;;;;;;;20.57;84.75;101183.13;6234001;28;20073;-92
2022/08/29 10:11:18;;;;;;;11.23;5.45;;;;;;;20.62;84.46;101191.31;6227694;28;20300;-92
2022/08/29 10:14:55;;;;;;;9.88;5.47;;;;;;;20.84;84.26;101188.91;6224386;28;20045;-93
2022/08/29 10:18:32;;;;;;;9.48;5.30;;;;;;;20.95;83.38;101191.16;6226899;28;20048;-91
2022/08/29 10:21:47;;;;;;;10.43;5.20;;;;;;;20.89;84.42;101188.41;6119288;29;20055;-92
2022/08/29 10:25:27;;;;;;;11.98;6.28;;;;;;;20.97;83.62;101188.38;6135197;29;20054;-90
2022/08/29 10:28:58;;;;;;;8.77;5.15;;;;;;;20.97;85.39;101191.00;6108912;29;20057;-90
2022/08/29 10:32:11;;;;;;;10.88;4.90;;;;;;;21.06;84.07;101193.38;6133238;29;20095;-90
2022/08/29 10:35:23;;;;;;;13.57;6.25;;;;;;;21.29;83.14;101185.53;6117733;29;20129;-91
2022/08/29 10:38:35;;;;;;;8.70;4.93;;;;;;;21.29;81.85;101192.59;6132277;29;20059;-91
2022/08/29 10:41:57;;;;;;;10.77;5.20;;;;;;;21.29;80.49;101188.16;6127594;29;20047;-91
2022/08/29 10:45:35;;;;;;;12.27;6.25;;;;;;;21.11;81.86;101186.78;6123634;29;20331;-90
2022/08/29 10:48:43;;;;;;;8.93;4.97;;;;;;;21.09;82.04;101186.94;6103449;29;20083;-91
2022/08/29 10:52:19;;;;;;;10.27;5.07;;;;;;;20.95;81.02;101179.81;6119613;29;20097;-91
2022/08/29 10:55:39;;;;;;;10.68;5.32;;;;;;;20.63;83.46;101178.97;6116605;28;20047;-92
2022/08/29 10:59:17;;;;;;;8.73;5.03;;;;;;;20.59;82.53;101181.13;6207127;28;20050;-91
2022/08/29 11:02:36;;;;;;;9.43;4.75;;;;;;;20.42;83.33;101171.63;6208484;28;20127;-91
2022/08/29 11:05:43;;;;;;;9.68;5.13;;;;;;;20.43;83.27;101178.53;6233599;28;20046;-90
2022/08/29 11:09:07;;;;;;;14.73;4.40;;;;;;;20.58;82.95;101168.97;6214159;28;20439;-91
2022/08/29 11:12:34;;;;;;;8.90;4.47;;;;;;;20.85;80.51;101175.59;6232394;28;20411;-91
2022/08/29 11:16:04;;;;;;;10.10;4.60;;;;;;;21.26;79.30;101169.25;6212430;28;20053;-90
2022/08/29 11:19:11;;;;;;;9.30;5.10;;;;;;;21.73;77.31;101174.31;6205030;28;20046;-92
2022/08/29 11:22:13;;;;;;;7.07;4.07;;;;;;;22.11;74.42;101182.22;6217298;28;20065;-91
2022/08/29 11:25:19;;;;;;;9.25;4.18;;;;;;;22.46;71.83;101173.75;6209052;28;20058;-91
2022/08/29 11:28:56;;;;;;;7.38;3.42;;;;;;;22.95;69.13;101181.03;6204388;28;20050;-90
2022/08/29 11:32:21;;;;;;;9.48;4.70;;;;;;;23.18;68.11;101181.72;6113649;29;20062;-91
2022/08/29 11:35:50;;;;;;;7.53;3.55;;;;;;;23.13;67.91;101180.63;6121664;29;20117;-92
2022/08/29 11:39:11;;;;;;;9.02;4.50;;;;;;;23.21;67.42;101180.53;6091338;29;20059;-91
2022/08/29 11:42:17;;;;;;;8.80;4.00;;;;;;;23.19;67.88;101179.91;6082057;29;20110;-91
2022/08/29 11:45:42;;;;;;;11.13;4.13;;;;;;;22.99;69.19;101184.97;6070304;29;20044;-91
2022/08/29 11:48:47;;;;;;;8.02;3.78;;;;;;;23.28;68.06;101189.34;6089154;29;20392;-92
2022/08/29 11:52:00;;;;;;;10.13;4.68;;;;;;;23.53;67.32;101189.78;6080554;29;20060;-91
2022/08/29 11:55:37;;;;;;;8.25;4.10;;;;;;;23.34;67.04;101190.41;6080754;29;20052;-91
2022/08/29 11:58:48;;;;;;;9.77;4.00;;;;;;;23.26;67.31;101183.44;6076188;29;20595;-91
2022/08/29 12:01:59;;;;;;;7.18;3.80;;;;;;;23.39;67.37;101190.66;6065302;29;20055;-92
2022/08/29 12:05:16;;;;;;;8.60;3.90;;;;;;;23.42;67.04;101182.34;6089669;29;20760;-92
2022/08/29 12:08:34;;;;;;;10.15;4.75;;;;;;;23.20;67.43;101179.72;6096075;28;20527;-91
2022/08/29 12:12:00;;;;;;;9.90;4.63;;;;;;;23.13;68.74;101172.72;6161912;28;20137;-90
2022/08/29 12:15:37;;;;;;;6.40;3.90;;;;;;;22.98;68.17;101173.63;6181000;28;20066;-91
2022/08/29 12:18:46;;;;;;;7.43;4.28;;;;;;;22.90;68.55;101165.75;6223406;28;20046;-91
2022/08/29 12:21:48;;;;;;;8.48;4.30;;;;;;;22.84;68.38;101158.59;6209337;28;20075;-91
2022/08/29 12:24:50;;;;;;;6.32;3.97;;;;;;;22.96;66.85;101159.75;6212567;28;20096;-91
2022/08/29 12:28:31;;;;;;;7.32;3.83;;;;;;;22.97;67.70;101156.13;6223544;28;20644;-90
2022/08/29 12:32:04;;;;;;;5.53;3.47;;;;;;;23.49;65.69;101143.59;6127524;29;20535;-90
2022/08/29 12:36:06;;;;;;;6.57;3.60;;;;;;;24.23;63.29;101142.28;6127795;29;20059;-95
2022/08/29 12:39:34;;;;;;;7.00;3.70;;;;;;;24.95;61.44;101137.44;6126345;29;20055;-93
2022/08/29 12:43:16;;;;;;;7.28;3.63;;;;;;;25.73;58.50;101129.72;6117394;29;20509;-90
2022/08/29 12:46:50;;;;;;;8.40;3.47;;;;;;;26.49;55.38;101125.66;6135368;29;20043;-91
2022/08/29 12:49:55;;;;;;;6.85;4.00;;;;;;;26.40;55.78;101131.19;6049355;29;20066;-91
2022/08/29 12:53:04;;;;;;;7.57;3.90;;;;;;;25.93;55.21;101127.06;6057737;29;20052;-90
2022/08/29 12:56:20;;;;;;;10.23;3.83;;;;;;;25.62;57.60;101117.13;6066256;29;20049;-90
2022/08/29 12:59:23;;;;;;;6.03;3.72;;;;;;;25.70;56.99;101119.53;6064279;29;20057;-90
2022/08/29 13:02:35;;;;;;;5.22;3.10;;;;;;;26.06;56.35;101116.44;6064459;29;20052;-90
2022/08/29 13:05:39;;;;;;;7.68;3.42;;;;;;;26.51;54.64;101108.47;6063760;29;20060;-90
2022/08/29 13:08:41;;;;;;;6.72;3.28;;;;;;;26.47;54.10;101106.44;6131300;28;20054;-91
2022/08/29 13:11:43;;;;;;;5.25;3.22;;;;;;;26.54;52.96;101107.28;6156345;28;20050;-91
2022/08/29 13:15:01;;;;;;;5.57;2.70;;;;;;;26.55;51.50;101101.72;6157301;28;20057;-91
2022/08/29 13:18:04;;;;;;;10.40;3.42;;;;;;;26.57;51.09;101107.66;6156115;28;20464;-90
2022/08/29 13:21:24;;;;;;;5.18;2.95;;;;;;;26.40;52.92;101095.84;6156730;28;20038;-90
2022/08/29 13:24:26;;;;;;;5.63;2.75;;;;;;;26.59;51.91;101096.81;6157143;28;20078;-91
2022/08/29 13:27:28;;;;;;;7.15;3.08;;;;;;;26.25;52.06;101095.31;6192211;28;20104;-90
2022/08/29 13:30:30;;;;;;;5.68;3.13;;;;;;;26.29;52.59;101094.69;6196598;28;20045;-90
2022/08/29 13:33:32;;;;;;;5.80;3.45;;;;;;;26.54;52.75;101084.19;6216923;28;20244;-90
2022/08/29 13:36:45;;;;;;;4.88;3.00;;;;;;;26.77;52.06;101086.28;6206302;28;20503;-92
2022/08/29 13:39:47;;;;;;;4.80;2.72;;;;;;;26.53;50.75;101079.06;6198371;28;20046;-92
2022/08/29 13:42:49;;;;;;;7.88;3.00;;;;;;;25.89;51.41;101075.47;6212838;28;20046;-92
2022/08/29 13:46:29;;;;;;;7.20;2.78;;;;;;;25.82;51.71;101072.78;6214566;28;20516;-93
2022/08/29 13:49:34;;;;;;;3.78;2.50;;;;;;;25.84;51.10;101070.75;6134488;29;20732;-92
2022/08/29 13:52:35;;;;;;;4.20;2.67;;;;;;;26.12;51.59;101072.31;6097722;29;20631;-92
2022/08/29 13:55:40;;;;;;;4.53;2.78;;;;;;;26.61;49.72;101068.22;6133463;29;20097;-92
2022/08/29 13:58:45;;;;;;;4.82;2.83;;;;;;;26.92;49.50;101061.25;6132143;29;20063;-92
2022/08/29 14:01:47;;;;;;;6.70;2.67;;;;;;;27.28;48.76;101057.91;6098041;29;20125;-92
2022/08/29 14:05:09;;;;;;;4.30;2.80;;;;;;;27.27;50.06;101053.59;6114715;29;20083;-92
2022/08/29 14:08:12;;;;;;;3.53;2.30;;;;;;;27.38;47.48;101052.06;6128925;29;20285;-92
2022/08/29 14:11:14;;;;;;;6.03;2.67;;;;;;;26.97;48.96;101043.63;6129491;29;20058;-92
2022/08/29 14:14:16;;;;;;;5.25;2.97;;;;;;;26.67;50.26;101046.09;6117138;29;20066;-92
2022/08/29 14:17:18;;;;;;;6.72;2.83;;;;;;;26.33;50.97;101048.09;6127324;29;20048;-92
2022/08/29 14:20:20;;;;;;;3.75;2.67;;;;;;;26.45;50.58;101044.78;6116294;29;20082;-92
2022/08/29 14:23:22;;;;;;;5.25;3.30;;;;;;;26.24;51.17;101043.28;6116419;28;20043;-92
2022/08/29 14:26:25;;;;;;;4.78;3.15;;;;;;;26.20;52.21;101046.34;6191220;28;20035;-92
2022/08/29 14:29:28;;;;;;;5.63;3.00;;;;;;;26.51;51.39;101041.25;6201832;28;20119;-92
2022/08/29 14:32:31;;;;;;;8.70;3.20;;;;;;;26.54;51.23;101046.19;6204461;28;20042;-92
2022/08/29 14:35:33;;;;;;;6.32;2.80;;;;;;;26.61;51.24;101050.44;6226942;28;20068;-91
2022/08/29 14:38:35;;;;;;;8.40;3.05;;;;;;;26.66;50.40;101039.16;6206922;28;20145;-92